createdAt,value
2023-03-05T00:02:07.650Z,102724.72
2023-03-05T00:04:37.207Z,102723.81
2023-03-05T00:07:05.636Z,102719.63
2023-03-05T00:09:35.812Z,102719.47
2023-03-05T00:12:04.190Z,102711.81
2023-03-05T00:14:32.221Z,102715.13
2023-03-05T00:17:00.337Z,102715.94
2023-03-05T00:19:28.437Z,102703.03
2023-03-05T00:21:57.833Z,102696.25
2023-03-05T00:24:25.867Z,102692.69
2023-03-05T00:26:54.670Z,102690.91
2023-03-05T00:29:23.124Z,102698.69
2023-03-05T00:31:51.349Z,102688.44
2023-03-05T00:34:20.502Z,102677.88
2023-03-05T00:36:51.142Z,102675.31
2023-03-05T00:39:21.909Z,102667.47
2023-03-05T00:41:50.567Z,102656.91
2023-03-05T00:44:18.807Z,102651.66
2023-03-05T00:46:48.258Z,102650.00
2023-03-05T00:49:16.866Z,102667.00
2023-03-05T00:51:44.876Z,102658.34
2023-03-05T00:54:12.889Z,102659.13
2023-03-05T00:56:42.421Z,102656.47
2023-03-05T00:59:10.501Z,102657.09
2023-03-05T01:01:38.581Z,102668.44
2023-03-05T01:04:06.846Z,102667.56
2023-03-05T01:06:35.100Z,102672.69
2023-03-05T01:09:03.212Z,102661.44
2023-03-05T01:11:32.117Z,102665.44
2023-03-05T01:14:01.576Z,102665.34
2023-03-05T01:16:29.725Z,102670.47
2023-03-05T01:18:57.772Z,102672.00
2023-03-05T01:21:25.893Z,102669.44
2023-03-05T01:23:53.981Z,102673.44
2023-03-05T01:26:22.003Z,102662.34
2023-03-05T01:28:50.073Z,102654.53
2023-03-05T01:31:19.598Z,102651.13
2023-03-05T01:33:47.606Z,102656.22
2023-03-05T01:36:17.313Z,102656.09
2023-03-05T01:38:46.549Z,102651.78
2023-03-05T01:41:15.971Z,102650.09
2023-03-05T01:43:44.174Z,102650.00
2023-03-05T01:46:36.051Z,102649.09
2023-03-05T01:49:12.035Z,102634.66
2023-03-05T01:51:46.078Z,102626.00
2023-03-05T01:54:16.916Z,102640.56
2023-03-05T01:56:47.278Z,102635.34
2023-03-05T01:59:15.670Z,102633.56
2023-03-05T02:01:49.490Z,102630.88
2023-03-05T02:04:19.905Z,102626.44
2023-03-05T02:06:48.598Z,102619.53
2023-03-05T02:09:16.883Z,102621.09
2023-03-05T02:11:45.145Z,102628.78
2023-03-05T02:14:13.189Z,102620.09
2023-03-05T02:16:41.293Z,102613.19
2023-03-05T02:19:13.123Z,102616.53
2023-03-05T02:21:44.980Z,102608.88
2023-03-05T02:24:14.603Z,102612.19
2023-03-05T02:26:45.028Z,102594.41
2023-03-05T02:29:17.115Z,102590.22
2023-03-05T02:31:45.512Z,102585.09
2023-03-05T02:34:13.600Z,102588.41
2023-03-05T02:36:43.227Z,102582.31
2023-03-05T02:39:11.506Z,102588.31
2023-03-05T02:41:39.549Z,102582.44
2023-03-05T02:44:07.574Z,102567.97
2023-03-05T02:46:35.786Z,102574.09
2023-03-05T02:49:03.872Z,102567.97
2023-03-05T02:51:32.061Z,102578.78
2023-03-05T02:54:01.473Z,102561.66
2023-03-05T02:56:29.489Z,102553.09
2023-03-05T02:58:57.525Z,102548.75
2023-03-05T03:01:28.261Z,102544.41
2023-03-05T03:03:56.352Z,102540.88
2023-03-05T03:06:24.483Z,102533.09
2023-03-05T03:08:52.507Z,102529.75
2023-03-05T03:11:22.006Z,102522.88
2023-03-05T03:13:50.072Z,102511.78
2023-03-05T03:16:18.913Z,102514.44
2023-03-05T03:18:49.008Z,102505.13
2023-03-05T03:21:20.483Z,102511.09
2023-03-05T03:23:48.562Z,102499.09
2023-03-05T03:26:16.839Z,102491.25
2023-03-05T03:28:46.829Z,102484.34
2023-03-05T03:31:15.189Z,102476.69
2023-03-05T03:33:43.262Z,102477.56
2023-03-05T03:36:11.678Z,102467.25
2023-03-05T03:38:39.842Z,102468.88
2023-03-05T03:41:08.906Z,102467.78
2023-03-05T03:43:37.684Z,102466.81
2023-03-05T03:46:08.238Z,102461.69
2023-03-05T03:48:36.675Z,102460.00
2023-03-05T03:51:09.028Z,102454.03
2023-03-05T03:53:37.093Z,102449.69
2023-03-05T03:56:05.716Z,102442.03
2023-03-05T03:58:34.153Z,102446.38
2023-03-05T04:01:02.283Z,102428.50
2023-03-05T04:03:31.701Z,102421.69
2023-03-05T04:05:59.902Z,102425.81
2023-03-05T04:08:28.106Z,102424.94
2023-03-05T04:10:56.124Z,102412.25
2023-03-05T04:13:24.429Z,102413.94
2023-03-05T04:15:52.491Z,102406.94
2023-03-05T04:18:20.657Z,102407.81
2023-03-05T04:20:50.083Z,102409.38
2023-03-05T04:23:18.191Z,102402.50
2023-03-05T04:25:46.237Z,102401.38
2023-03-05T04:28:15.306Z,102403.06
2023-03-05T04:30:43.304Z,102403.75
2023-03-05T04:33:11.473Z,102411.28
2023-03-05T04:35:39.861Z,102413.06
2023-03-05T04:38:09.906Z,102418.94
2023-03-05T04:40:38.109Z,102418.16
2023-03-05T04:43:06.941Z,102411.28
2023-03-05T04:45:35.338Z,102408.72
2023-03-05T04:48:03.446Z,102399.41
2023-03-05T04:50:31.808Z,102396.09
2023-03-05T04:53:00.588Z,102399.50
2023-03-05T04:55:30.132Z,102391.84
2023-03-05T04:57:58.226Z,102390.97
2023-03-05T05:00:26.869Z,102401.06
2023-03-05T05:02:55.198Z,102396.94
2023-03-05T05:05:25.897Z,102401.28
2023-03-05T05:07:57.178Z,102393.63
2023-03-05T05:10:25.917Z,102386.75
2023-03-05T05:12:55.456Z,102388.53
2023-03-05T05:15:23.497Z,102378.19
2023-03-05T05:17:51.921Z,102391.94
2023-03-05T05:20:20.265Z,102378.31
2023-03-05T05:22:48.271Z,102372.19
2023-03-05T05:25:16.478Z,102373.09
2023-03-05T05:27:44.591Z,102373.97
2023-03-05T05:30:14.809Z,102370.53
2023-03-05T05:32:42.688Z,102361.44
2023-03-05T05:35:12.011Z,102362.31
2023-03-05T05:37:40.160Z,102362.09
2023-03-05T05:40:09.898Z,102362.97
2023-03-05T05:42:37.931Z,102356.00
2023-03-05T05:45:06.886Z,102355.09
2023-03-05T05:47:36.396Z,102354.66
2023-03-05T05:50:04.477Z,102352.09
2023-03-05T05:52:32.588Z,102358.75
2023-03-05T05:55:00.572Z,102358.75
2023-03-05T05:57:28.573Z,102346.78
2023-03-05T05:59:56.562Z,102347.69
2023-03-05T06:02:24.802Z,102345.03
2023-03-05T06:04:54.610Z,102343.25
2023-03-05T06:07:23.475Z,102337.25
2023-03-05T06:09:51.506Z,102332.13
2023-03-05T06:12:20.710Z,102324.38
2023-03-05T06:14:48.699Z,102331.25
2023-03-05T06:17:25.114Z,102329.72
2023-03-05T06:19:59.684Z,102321.25
2023-03-05T06:22:27.843Z,102312.94
2023-03-05T06:24:55.821Z,102321.47
2023-03-05T06:27:23.857Z,102314.59
2023-03-05T06:29:54.012Z,102307.69
2023-03-05T06:32:21.911Z,102308.78
2023-03-05T06:34:50.456Z,102304.59
2023-03-05T06:37:19.932Z,102300.25
2023-03-05T06:39:47.983Z,102295.94
2023-03-05T06:42:17.747Z,102296.84
2023-03-05T06:44:47.897Z,102289.06
2023-03-05T06:47:17.682Z,102296.38
2023-03-05T06:49:45.700Z,102296.28
2023-03-05T06:52:13.813Z,102293.72
2023-03-05T06:54:43.235Z,102292.06
2023-03-05T06:57:12.197Z,102303.28
2023-03-05T06:59:40.340Z,102302.59
2023-03-05T07:02:11.974Z,102292.38
2023-03-05T07:04:40.049Z,102300.25
2023-03-05T07:07:10.826Z,102296.16
2023-03-05T07:09:42.975Z,102300.38
2023-03-05T07:12:12.909Z,102297.03
2023-03-05T07:14:40.914Z,102296.34
2023-03-05T07:17:09.126Z,102288.03
2023-03-05T07:19:37.224Z,102293.44
2023-03-05T07:22:05.206Z,102289.22
2023-03-05T07:24:33.198Z,102286.09
2023-03-05T07:27:01.538Z,102285.44
2023-03-05T07:29:30.946Z,102292.63
2023-03-05T07:31:59.014Z,102292.06
2023-03-05T07:34:27.320Z,102288.81
2023-03-05T07:36:55.514Z,102287.50
2023-03-05T07:39:23.506Z,102286.69
2023-03-05T07:41:52.650Z,102286.03
2023-03-05T07:44:20.690Z,102280.41
2023-03-05T07:46:50.151Z,102275.31
2023-03-05T07:49:18.162Z,102274.84
2023-03-05T07:51:46.220Z,102273.38
2023-03-05T07:54:14.321Z,102272.81
2023-03-05T07:56:42.456Z,102260.44
2023-03-05T07:59:13.718Z,102275.09
2023-03-05T08:01:42.008Z,102264.16
2023-03-05T08:04:11.855Z,102263.38
2023-03-05T08:06:41.080Z,102254.69
2023-03-05T08:09:09.327Z,102247.31
2023-03-05T08:11:37.322Z,102246.41
2023-03-05T08:14:05.341Z,102256.34
2023-03-05T08:16:33.531Z,102244.53
2023-03-05T08:19:01.655Z,102243.28
2023-03-05T08:21:33.880Z,102243.47
2023-03-05T08:24:03.211Z,102236.22
2023-03-05T08:26:32.786Z,102243.88
2023-03-05T08:29:00.954Z,102239.28
2023-03-05T08:31:30.308Z,102223.50
2023-03-05T08:34:02.073Z,102234.13
2023-03-05T08:36:31.623Z,102227.31
2023-03-05T08:39:00.518Z,102223.94
2023-03-05T08:41:28.601Z,102231.81
2023-03-05T08:43:56.648Z,102219.81
2023-03-05T08:46:25.037Z,102218.91
2023-03-05T08:48:53.098Z,102216.75
2023-03-05T08:51:25.554Z,102212.38
2023-03-05T08:53:56.490Z,102201.28
2023-03-05T08:56:26.304Z,102197.13
2023-03-05T08:58:54.436Z,102186.44
2023-03-05T09:01:24.128Z,102184.16
2023-03-05T09:03:52.328Z,102179.66
2023-03-05T09:06:20.621Z,102184.09
2023-03-05T09:08:48.587Z,102177.00
2023-03-05T09:11:18.518Z,102176.75
2023-03-05T09:13:46.528Z,102171.09
2023-03-05T09:16:16.299Z,102165.78
2023-03-05T09:18:44.968Z,102163.34
2023-03-05T09:21:15.740Z,102160.72
2023-03-05T09:23:47.324Z,102159.13
2023-03-05T09:26:19.470Z,102157.53
2023-03-05T09:28:48.733Z,102156.06
2023-03-05T09:31:17.056Z,102152.56
2023-03-05T09:33:45.171Z,102156.38
2023-03-05T09:36:21.084Z,102143.59
2023-03-05T09:38:49.132Z,102148.38
2023-03-05T09:41:30.334Z,102139.78
2023-03-05T09:44:08.945Z,102133.84
2023-03-05T09:46:51.615Z,102125.66
2023-03-05T09:49:30.493Z,102130.16
2023-03-05T09:52:10.640Z,102119.78
2023-03-05T09:54:42.519Z,102112.81
2023-03-05T09:57:18.740Z,102116.59
2023-03-05T09:59:51.092Z,102120.44
2023-03-05T10:02:22.137Z,102118.69
2023-03-05T10:04:56.122Z,102111.13
2023-03-05T10:07:28.782Z,102103.50
2023-03-05T10:10:00.704Z,102102.69
2023-03-05T10:12:42.611Z,102100.19
2023-03-05T10:15:14.572Z,102103.78
2023-03-05T10:18:06.921Z,102097.16
2023-03-05T10:20:52.439Z,102092.03
2023-03-05T10:23:30.189Z,102095.13
2023-03-05T10:26:12.138Z,102087.75
2023-03-05T10:28:47.790Z,102081.81
2023-03-05T10:31:38.373Z,102075.69
2023-03-05T10:34:32.628Z,102077.94
2023-03-05T10:37:39.993Z,102071.63
2023-03-05T10:40:17.323Z,102058.09
2023-03-05T10:42:55.301Z,102064.66
2023-03-05T10:45:29.427Z,102068.50
2023-03-05T10:48:04.648Z,102061.00
2023-03-05T10:50:37.309Z,102062.09
2023-03-05T10:53:17.147Z,102057.00
2023-03-05T10:55:45.791Z,102056.72
2023-03-05T10:58:14.829Z,102065.13
2023-03-05T11:00:59.910Z,102056.78
2023-03-05T11:03:30.466Z,102058.00
2023-03-05T11:06:02.230Z,102056.69
2023-03-05T11:08:33.670Z,102045.97
2023-03-05T11:11:15.283Z,102044.34
2023-03-05T11:13:53.074Z,102051.94
2023-03-05T11:16:24.825Z,102045.72
2023-03-05T11:19:16.835Z,102041.63
2023-03-05T11:21:46.232Z,102048.53
2023-03-05T11:24:16.112Z,102040.28
2023-03-05T11:26:52.261Z,102038.28
2023-03-05T11:29:26.259Z,102029.94
2023-03-05T11:31:56.021Z,102026.69
2023-03-05T11:34:31.528Z,102022.34
2023-03-05T11:37:06.392Z,102018.91
2023-03-05T11:39:38.492Z,102015.13
2023-03-05T11:42:12.094Z,102008.41
2023-03-05T11:44:48.186Z,102016.13
2023-03-05T11:47:25.767Z,102014.00
2023-03-05T11:50:02.278Z,102001.94
2023-03-05T11:52:35.462Z,102000.06
2023-03-05T11:55:07.195Z,101989.72
2023-03-05T11:57:44.001Z,101993.38
2023-03-05T12:00:17.987Z,101990.44
2023-03-05T12:02:51.817Z,101994.91
2023-03-05T12:05:20.012Z,101996.81
2023-03-05T12:07:52.103Z,101989.50
2023-03-05T12:10:22.144Z,101988.03
2023-03-05T12:12:57.042Z,101976.44
2023-03-05T12:15:47.784Z,101982.25
2023-03-05T12:18:30.597Z,101973.03
2023-03-05T12:21:07.445Z,101977.59
2023-03-05T12:23:50.363Z,101978.09
2023-03-05T12:26:19.075Z,101965.03
2023-03-05T12:28:58.535Z,101959.09
2023-03-05T12:31:38.006Z,101954.25
2023-03-05T12:34:47.246Z,101950.41
2023-03-05T12:37:16.233Z,101950.81
2023-03-05T12:39:53.192Z,101932.25
2023-03-05T12:42:52.649Z,101928.31
2023-03-05T12:45:33.455Z,101925.84
2023-03-05T12:48:37.171Z,101918.78
2023-03-05T12:51:06.734Z,101903.22
2023-03-05T12:53:35.102Z,101903.28
2023-03-05T12:56:12.394Z,101892.88
2023-03-05T12:58:45.194Z,101890.09
2023-03-05T13:01:30.337Z,101884.28
2023-03-05T13:04:02.023Z,101868.72
2023-03-05T13:06:34.213Z,101869.03
2023-03-05T13:09:04.258Z,101868.69
2023-03-05T13:11:35.110Z,101864.41
2023-03-05T13:14:03.709Z,101853.16
2023-03-05T13:16:38.248Z,101846.72
2023-03-05T13:19:17.506Z,101841.13
2023-03-05T13:21:46.942Z,101840.00
2023-03-05T13:24:17.962Z,101832.53
2023-03-05T13:26:46.162Z,101829.50
2023-03-05T13:29:16.633Z,101831.63
2023-03-05T13:31:46.594Z,101826.19
2023-03-05T13:34:19.377Z,101816.69
2023-03-05T13:36:55.697Z,101810.75
2023-03-05T13:39:27.398Z,101804.41
2023-03-05T13:42:04.328Z,101802.03
2023-03-05T13:44:33.550Z,101794.81
2023-03-05T13:47:09.855Z,101789.91
2023-03-05T13:49:37.852Z,101777.13
2023-03-05T13:52:07.925Z,101782.31
2023-03-05T13:54:35.961Z,101772.53
2023-03-05T13:57:06.698Z,101773.88
2023-03-05T13:59:39.094Z,101764.69
2023-03-05T14:02:18.339Z,101767.84
2023-03-05T14:07:42.973Z,101748.50
2023-03-05T14:10:30.602Z,101743.25
2023-03-05T14:12:59.662Z,101745.13
2023-03-05T14:15:30.795Z,101736.00
2023-03-05T14:18:19.365Z,101724.84
2023-03-05T14:21:03.139Z,101727.91
2023-03-05T14:23:39.296Z,101722.91
2023-03-05T14:26:22.072Z,101707.09
2023-03-05T14:28:54.784Z,101706.03
2023-03-05T14:31:23.836Z,101706.53
2023-03-05T14:33:53.459Z,101700.16
2023-03-05T14:36:27.402Z,101698.94
2023-03-05T14:38:57.930Z,101693.13
2023-03-05T14:41:38.691Z,101690.66
2023-03-05T14:44:13.653Z,101698.94
2023-03-05T14:46:42.097Z,101694.06
2023-03-05T14:49:10.521Z,101688.84
2023-03-05T14:51:41.840Z,101682.13
2023-03-05T14:54:21.674Z,101667.75
2023-03-05T14:56:50.780Z,101670.50
2023-03-05T14:59:19.131Z,101663.19
2023-03-05T15:01:47.204Z,101656.69
2023-03-05T15:04:19.110Z,101656.53
2023-03-05T15:06:51.023Z,101650.22
2023-03-05T15:09:21.242Z,101642.75
2023-03-05T15:11:50.073Z,101643.44
2023-03-05T15:14:18.161Z,101639.78
2023-03-05T15:16:48.838Z,101628.72
2023-03-05T15:19:16.915Z,101626.34
2023-03-05T15:21:45.068Z,101623.38
2023-03-05T15:24:14.862Z,101621.13
2023-03-05T15:26:46.239Z,101614.66
2023-03-05T15:29:14.227Z,101619.28
2023-03-05T15:31:42.218Z,101608.19
2023-03-05T15:34:10.228Z,101616.28
2023-03-05T15:36:38.337Z,101607.81
2023-03-05T15:39:06.399Z,101607.59
2023-03-05T15:41:34.417Z,101601.31
2023-03-05T15:44:03.985Z,101600.31
2023-03-05T15:46:33.404Z,101585.03
2023-03-05T15:49:01.442Z,101590.91
2023-03-05T15:51:29.527Z,101583.97
2023-03-05T15:53:58.068Z,101575.00
2023-03-05T15:56:26.056Z,101572.34
2023-03-05T15:58:54.206Z,101578.25
2023-03-05T16:01:23.732Z,101569.44
2023-03-05T16:03:52.293Z,101558.03
2023-03-05T16:06:23.350Z,101551.31
2023-03-05T16:08:53.671Z,101549.84
2023-03-05T16:11:21.932Z,101545.88
2023-03-05T16:13:51.409Z,101546.94
2023-03-05T16:16:21.813Z,101543.09
2023-03-05T16:18:51.590Z,101535.28
2023-03-05T16:21:19.634Z,101539.16
2023-03-05T16:23:49.461Z,101529.03
2023-03-05T16:26:19.940Z,101534.75
2023-03-05T16:28:47.888Z,101528.38
2023-03-05T16:31:15.904Z,101523.91
2023-03-05T16:33:43.999Z,101529.00
2023-03-05T16:36:26.020Z,101524.34
2023-03-05T16:38:56.327Z,101529.22
2023-03-05T16:41:25.199Z,101515.72
2023-03-05T16:43:56.356Z,101519.38
2023-03-05T16:46:25.148Z,101525.97
2023-03-05T16:48:54.358Z,101523.16
2023-03-05T16:51:23.892Z,101516.75
2023-03-05T16:53:52.318Z,101506.38
2023-03-05T16:56:20.886Z,101508.09
2023-03-05T16:58:51.397Z,101505.03
2023-03-05T17:01:21.893Z,101497.53
2023-03-05T17:03:50.600Z,101497.69
2023-03-05T17:06:24.513Z,101490.53
2023-03-05T17:08:54.653Z,101493.81
2023-03-05T17:11:22.597Z,101478.13
2023-03-05T17:13:50.698Z,101486.66
2023-03-05T17:16:20.650Z,101476.91
2023-03-05T17:18:49.349Z,101472.19
2023-03-05T17:21:17.479Z,101472.84
2023-03-05T17:23:45.944Z,101469.97
2023-03-05T17:26:17.714Z,101470.56
2023-03-05T17:28:46.196Z,101459.16
2023-03-05T17:31:14.915Z,101458.13
2023-03-05T17:33:43.165Z,101462.34
2023-03-05T17:36:15.220Z,101466.53
2023-03-05T17:38:43.645Z,101457.69
2023-03-05T17:41:11.820Z,101451.28
2023-03-05T17:43:41.385Z,101449.25
2023-03-05T17:46:10.024Z,101450.72
2023-03-05T17:48:39.392Z,101451.50
2023-03-05T17:51:08.268Z,101456.41
2023-03-05T17:53:38.923Z,101451.75
2023-03-05T17:56:08.931Z,101453.22
2023-03-05T17:58:37.111Z,101455.66
2023-03-05T18:01:08.215Z,101451.28
2023-03-05T18:03:37.142Z,101443.56
2023-03-05T18:06:05.836Z,101439.13
2023-03-05T18:08:33.910Z,101439.06
2023-03-05T18:11:01.949Z,101442.22
2023-03-05T18:13:29.938Z,101438.53
2023-03-05T18:15:59.536Z,101439.28
2023-03-05T18:18:29.517Z,101437.44
2023-03-05T18:20:57.604Z,101432.97
2023-03-05T18:23:25.590Z,101428.66
2023-03-05T18:25:53.601Z,101422.59
2023-03-05T18:28:22.071Z,101429.44
2023-03-05T18:30:50.227Z,101429.44
2023-03-05T18:33:20.885Z,101425.72
2023-03-05T18:35:52.484Z,101432.41
2023-03-05T18:38:21.330Z,101432.34
2023-03-05T18:40:51.444Z,101429.59
2023-03-05T18:43:20.675Z,101426.97
2023-03-05T18:45:51.339Z,101423.47
2023-03-05T18:48:19.819Z,101428.50
2023-03-05T18:50:52.573Z,101425.13
2023-03-05T18:53:22.752Z,101417.31
2023-03-05T18:55:51.551Z,101425.94
2023-03-05T18:58:19.817Z,101425.13
2023-03-05T19:00:48.710Z,101422.22
2023-03-05T19:03:19.839Z,101416.56
2023-03-05T19:05:51.307Z,101418.72
2023-03-05T19:08:19.361Z,101414.09
2023-03-05T19:10:49.261Z,101405.22
2023-03-05T19:13:25.870Z,101403.09
2023-03-05T19:15:54.122Z,101393.09
2023-03-05T19:18:25.740Z,101400.22
2023-03-05T19:20:55.986Z,101391.94
2023-03-05T19:23:24.106Z,101388.22
2023-03-05T19:25:53.532Z,101386.44
2023-03-05T19:28:21.933Z,101382.38
2023-03-05T19:30:50.130Z,101382.47
2023-03-05T19:33:18.142Z,101381.66
2023-03-05T19:35:46.233Z,101380.66
2023-03-05T19:38:14.227Z,101376.06
2023-03-05T19:40:42.660Z,101369.78
2023-03-05T19:43:12.197Z,101369.47
2023-03-05T19:45:40.212Z,101375.38
2023-03-05T19:48:08.765Z,101371.00
2023-03-05T19:50:36.894Z,101369.19
2023-03-05T19:53:04.934Z,101370.91
2023-03-05T19:55:33.073Z,101374.44
2023-03-05T19:58:01.102Z,101372.81
2023-03-05T20:00:30.707Z,101363.47
2023-03-05T20:02:58.891Z,101357.50
2023-03-05T20:05:26.959Z,101358.25
2023-03-05T20:07:55.106Z,101351.31
2023-03-05T20:10:23.442Z,101347.78
2023-03-05T20:12:51.871Z,101350.31
2023-03-05T20:15:23.494Z,101343.38
2023-03-05T20:17:54.918Z,101336.53
2023-03-05T20:20:23.135Z,101343.38
2023-03-05T20:22:51.163Z,101333.94
2023-03-05T20:25:22.352Z,101328.78
2023-03-05T20:27:50.432Z,101329.47
2023-03-05T20:30:19.056Z,101329.41
2023-03-05T20:32:47.426Z,101329.22
2023-03-05T20:35:18.780Z,101323.91
2023-03-05T20:38:00.237Z,101317.88
2023-03-05T20:40:30.400Z,101315.22
2023-03-05T20:42:58.125Z,101312.59
2023-03-05T20:45:26.144Z,101304.03
2023-03-05T20:47:55.634Z,101313.41
2023-03-05T20:50:26.591Z,101308.16
2023-03-05T20:52:54.635Z,101304.66
2023-03-05T20:55:23.494Z,101306.28
2023-03-05T20:57:51.717Z,101301.91
2023-03-05T21:00:20.298Z,101302.69
2023-03-05T21:02:50.665Z,101292.31
2023-03-05T21:05:20.262Z,101287.16
2023-03-05T21:07:50.210Z,101298.19
2023-03-05T21:10:18.650Z,101298.09
2023-03-05T21:12:48.008Z,101292.91
2023-03-05T21:15:19.452Z,101296.19
2023-03-05T21:17:48.012Z,101283.28
2023-03-05T21:20:17.350Z,101291.78
2023-03-05T21:22:45.361Z,101277.94
2023-03-05T21:25:21.864Z,101279.66
2023-03-05T21:27:51.483Z,101276.16
2023-03-05T21:30:21.358Z,101276.84
2023-03-05T21:32:50.086Z,101271.63
2023-03-05T21:35:19.925Z,101268.16
2023-03-05T21:37:48.500Z,101267.25
2023-03-05T21:40:18.977Z,101268.03
2023-03-05T21:42:47.731Z,101267.16
2023-03-05T21:45:19.536Z,101266.28
2023-03-05T21:47:48.252Z,101274.78
2023-03-05T21:50:18.216Z,101272.13
2023-03-05T21:52:47.948Z,101266.03
2023-03-05T21:55:19.519Z,101262.53
2023-03-05T21:57:47.553Z,101260.72
2023-03-05T22:00:18.220Z,101261.41
2023-03-05T22:02:47.033Z,101264.72
2023-03-05T22:05:15.678Z,101256.91
2023-03-05T22:07:44.459Z,101268.84
2023-03-05T22:10:14.046Z,101263.66
2023-03-05T22:12:53.316Z,101250.75
2023-03-05T22:15:21.853Z,101249.91
2023-03-05T22:17:50.334Z,101250.72
2023-03-05T22:20:19.205Z,101243.91
2023-03-05T22:22:47.258Z,101244.63
2023-03-05T22:25:16.932Z,101241.19
2023-03-05T22:27:46.491Z,101245.34
2023-03-05T22:30:15.215Z,101238.31
2023-03-05T22:32:43.232Z,101240.78
2023-03-05T22:35:13.566Z,101236.22
2023-03-05T22:37:42.476Z,101230.81
2023-03-05T22:40:14.669Z,101227.25
2023-03-05T22:42:42.980Z,101232.19
2023-03-05T22:45:13.760Z,101221.88
2023-03-05T22:47:41.833Z,101225.19
2023-03-05T22:50:11.101Z,101212.38
2023-03-05T22:52:39.168Z,101218.44
2023-03-05T22:55:07.880Z,101220.91
2023-03-05T22:57:35.887Z,101222.88
2023-03-05T23:00:08.179Z,101209.47
2023-03-05T23:02:37.588Z,101214.81
2023-03-05T23:05:07.356Z,101203.78
2023-03-05T23:07:37.660Z,101201.34
2023-03-05T23:10:10.715Z,101198.97
2023-03-05T23:12:44.091Z,101198.13
2023-03-05T23:15:14.775Z,101199.66
2023-03-05T23:17:44.164Z,101195.38
2023-03-05T23:20:16.719Z,101189.47
2023-03-05T23:22:46.341Z,101187.00
2023-03-05T23:25:16.473Z,101178.50
2023-03-05T23:27:44.807Z,101187.97
2023-03-05T23:30:19.770Z,101182.78
2023-03-05T23:32:52.166Z,101190.53
2023-03-05T23:35:22.516Z,101176.69
2023-03-05T23:37:50.572Z,101174.13
2023-03-05T23:40:21.391Z,101177.59
2023-03-05T23:42:49.478Z,101168.16
2023-03-05T23:45:20.219Z,101174.09
2023-03-05T23:47:52.069Z,101167.38
2023-03-05T23:50:22.195Z,101171.72
2023-03-05T23:52:51.033Z,101169.94
2023-03-05T23:55:21.475Z,101155.31
2023-03-05T23:57:50.098Z,101159.50
